createdAt,value
2022-11-17T00:00:27.751Z,88.60
2022-11-17T00:02:54.580Z,89.00
2022-11-17T00:05:21.454Z,89.10
2022-11-17T00:07:49.977Z,88.80
2022-11-17T00:10:18.011Z,88.90
2022-11-17T00:13:03.199Z,88.80
2022-11-17T00:15:30.196Z,89.00
2022-11-17T00:18:15.774Z,89.10
2022-11-17T00:21:01.253Z,89.40
2022-11-17T00:23:48.595Z,89.40
2022-11-17T00:26:21.011Z,89.30
2022-11-17T00:28:51.322Z,89.10
2022-11-17T00:31:36.735Z,89.20
2022-11-17T00:34:06.742Z,89.10
2022-11-17T00:36:39.178Z,89.00
2022-11-17T00:39:07.520Z,89.10
2022-11-17T00:41:34.429Z,89.20
2022-11-17T00:44:01.276Z,89.00
2022-11-17T00:46:28.240Z,89.00
2022-11-17T00:48:55.058Z,89.10
2022-11-17T00:51:22.039Z,89.10
2022-11-17T00:53:49.393Z,88.90
2022-11-17T00:56:16.703Z,88.80
2022-11-17T00:58:43.722Z,88.70
2022-11-17T01:01:11.109Z,88.60
2022-11-17T01:03:38.354Z,88.60
2022-11-17T01:06:07.479Z,88.50
2022-11-17T01:08:35.025Z,88.70
2022-11-17T01:11:06.967Z,88.30
2022-11-17T01:13:34.204Z,88.20
2022-11-17T01:16:11.830Z,88.20
2022-11-17T01:18:39.496Z,88.70
2022-11-17T01:21:12.668Z,88.60
2022-11-17T01:23:40.936Z,88.50
2022-11-17T01:26:10.442Z,88.40
2022-11-17T01:28:38.278Z,88.30
2022-11-17T01:31:14.185Z,88.60
2022-11-17T01:33:41.446Z,88.20
2022-11-17T01:36:22.345Z,88.40
2022-11-17T01:38:49.544Z,88.30
2022-11-17T01:41:24.963Z,88.30
2022-11-17T01:43:59.716Z,88.40
2022-11-17T01:46:40.897Z,88.60
2022-11-17T01:49:21.285Z,88.40
2022-11-17T01:51:52.917Z,88.20
2022-11-17T01:54:23.220Z,88.40
2022-11-17T01:56:54.261Z,88.10
2022-11-17T01:59:27.190Z,88.10
2022-11-17T02:01:57.852Z,88.20
2022-11-17T02:05:03.554Z,88.30
2022-11-17T02:07:34.419Z,88.00
2022-11-17T02:10:02.829Z,88.00
2022-11-17T02:12:32.211Z,88.40
2022-11-17T02:15:00.210Z,88.20
2022-11-17T02:17:33.110Z,88.20
2022-11-17T02:20:09.780Z,88.10
2022-11-17T02:23:03.533Z,88.10
2022-11-17T02:26:12.390Z,88.20
2022-11-17T02:28:50.746Z,88.10
2022-11-17T02:31:20.425Z,88.00
2022-11-17T02:33:58.565Z,88.30
2022-11-17T02:36:36.997Z,87.70
2022-11-17T02:39:28.433Z,88.00
2022-11-17T02:42:44.038Z,87.80
2022-11-17T02:45:18.483Z,87.80
2022-11-17T02:47:49.651Z,88.00
2022-11-17T02:50:18.784Z,88.10
2022-11-17T02:52:45.702Z,87.90
2022-11-17T02:55:12.647Z,87.80
2022-11-17T02:57:41.290Z,87.80
2022-11-17T03:00:14.077Z,87.90
2022-11-17T03:02:46.956Z,87.90
2022-11-17T03:05:16.613Z,87.70
2022-11-17T03:08:10.543Z,88.20
2022-11-17T03:10:57.342Z,88.10
2022-11-17T03:13:48.788Z,88.20
2022-11-17T03:16:21.557Z,88.20
2022-11-17T03:19:06.385Z,88.10
2022-11-17T03:21:50.870Z,88.20
2022-11-17T03:24:29.801Z,88.10
2022-11-17T03:27:21.918Z,88.20
2022-11-17T03:29:53.645Z,88.10
2022-11-17T03:32:22.657Z,88.50
2022-11-17T03:35:00.063Z,88.40
2022-11-17T03:37:30.836Z,88.30
2022-11-17T03:40:05.965Z,88.10
2022-11-17T03:42:36.564Z,88.40
2022-11-17T03:45:17.729Z,88.30
2022-11-17T03:47:45.444Z,88.30
2022-11-17T03:50:33.649Z,88.50
2022-11-17T03:53:03.080Z,88.20
2022-11-17T03:56:07.653Z,88.40
2022-11-17T03:58:40.322Z,88.10
2022-11-17T04:01:09.258Z,88.20
2022-11-17T04:03:38.232Z,88.10
2022-11-17T04:06:05.308Z,88.20
2022-11-17T04:08:32.118Z,87.90
2022-11-17T04:11:17.298Z,88.20
2022-11-17T04:14:02.893Z,88.20
2022-11-17T04:16:29.658Z,88.00
2022-11-17T04:18:58.982Z,88.30
2022-11-17T04:21:26.634Z,88.10
2022-11-17T04:23:53.419Z,87.90
2022-11-17T04:26:38.957Z,88.20
2022-11-17T04:29:05.747Z,88.00
2022-11-17T04:31:32.555Z,88.10
2022-11-17T04:34:04.666Z,88.20
2022-11-17T04:36:36.919Z,88.10
2022-11-17T04:39:04.362Z,88.20
2022-11-17T04:41:49.900Z,87.90
2022-11-17T04:44:17.710Z,87.90
2022-11-17T04:46:46.144Z,87.70
2022-11-17T04:49:14.615Z,87.60
2022-11-17T04:51:41.931Z,87.60
2022-11-17T04:54:11.499Z,87.40
2022-11-17T04:56:38.893Z,87.60
2022-11-17T04:59:06.219Z,87.60
2022-11-17T05:01:33.616Z,87.20
2022-11-17T05:04:03.217Z,87.20
2022-11-17T05:06:32.680Z,87.20
2022-11-17T05:09:05.262Z,87.30
2022-11-17T05:11:50.550Z,87.20
2022-11-17T05:14:19.789Z,87.10
2022-11-17T05:17:09.600Z,87.20
2022-11-17T05:19:45.541Z,87.30
2022-11-17T05:22:41.992Z,87.10
2022-11-17T05:25:09.543Z,87.20
2022-11-17T05:27:36.855Z,87.50
2022-11-17T05:30:06.202Z,87.60
2022-11-17T05:32:33.127Z,87.60
2022-11-17T05:35:00.026Z,87.70
2022-11-17T05:37:26.872Z,87.60
2022-11-17T05:39:53.673Z,87.70
2022-11-17T05:42:20.526Z,87.70
2022-11-17T05:44:48.621Z,87.60
2022-11-17T05:47:16.119Z,87.80
2022-11-17T05:49:42.905Z,87.70
2022-11-17T05:52:09.811Z,87.50
2022-11-17T05:54:36.857Z,87.60
2022-11-17T05:57:09.193Z,87.60
2022-11-17T05:59:41.565Z,87.60
2022-11-17T06:02:14.684Z,87.80
2022-11-17T06:04:41.494Z,87.60
2022-11-17T06:07:08.372Z,87.30
2022-11-17T06:09:39.132Z,87.50
2022-11-17T06:12:06.601Z,87.60
2022-11-17T06:14:35.533Z,87.40
2022-11-17T06:17:12.815Z,87.30
2022-11-17T06:19:46.137Z,87.30
2022-11-17T06:22:13.683Z,87.30
2022-11-17T06:24:45.996Z,87.40
2022-11-17T06:27:14.545Z,87.50
2022-11-17T06:29:44.890Z,87.40
2022-11-17T06:32:14.373Z,87.60
2022-11-17T06:34:42.994Z,87.60
2022-11-17T06:37:11.348Z,87.30
2022-11-17T06:39:38.199Z,87.10
2022-11-17T06:42:05.044Z,87.10
2022-11-17T06:44:31.821Z,86.80
2022-11-17T06:46:58.614Z,86.80
2022-11-17T06:49:26.512Z,86.90
2022-11-17T06:51:53.438Z,86.90
2022-11-17T06:54:20.282Z,86.80
2022-11-17T06:56:49.635Z,86.50
2022-11-17T06:59:17.190Z,86.50
2022-11-17T07:01:44.147Z,86.70
2022-11-17T07:04:11.058Z,86.40
2022-11-17T07:06:38.279Z,86.20
2022-11-17T07:09:05.406Z,86.40
2022-11-17T07:11:36.299Z,85.90
2022-11-17T07:14:03.586Z,85.80
2022-11-17T07:16:31.337Z,85.90
2022-11-17T07:18:59.367Z,85.80
2022-11-17T07:21:26.474Z,85.90
2022-11-17T07:23:53.754Z,85.90
2022-11-17T07:26:20.659Z,85.70
2022-11-17T07:28:47.421Z,85.60
2022-11-17T07:31:14.340Z,85.50
2022-11-17T07:33:41.183Z,85.80
2022-11-17T07:36:16.614Z,86.00
2022-11-17T07:38:43.517Z,85.80
2022-11-17T07:41:13.261Z,86.10
2022-11-17T07:43:40.403Z,86.20
2022-11-17T07:46:09.005Z,86.30
2022-11-17T07:48:36.231Z,86.40
2022-11-17T07:51:04.307Z,86.40
2022-11-17T07:53:33.217Z,86.70
2022-11-17T07:56:07.967Z,86.70
2022-11-17T07:58:35.091Z,86.40
2022-11-17T08:01:20.116Z,86.20
2022-11-17T08:03:47.014Z,86.00
2022-11-17T08:06:14.020Z,86.10
2022-11-17T08:08:41.005Z,86.20
2022-11-17T08:11:10.691Z,86.00
2022-11-17T08:13:39.698Z,86.00
2022-11-17T08:16:07.852Z,85.90
2022-11-17T08:18:36.086Z,85.80
2022-11-17T08:21:08.594Z,85.60
2022-11-17T08:23:36.076Z,85.00
2022-11-17T08:26:04.988Z,85.20
2022-11-17T08:28:32.266Z,84.90
2022-11-17T08:31:02.004Z,84.90
2022-11-17T08:33:29.048Z,85.10
2022-11-17T08:36:03.581Z,85.50
2022-11-17T08:38:30.945Z,85.70
2022-11-17T08:41:08.372Z,85.80
2022-11-17T08:43:36.063Z,85.40
2022-11-17T08:46:03.471Z,85.00
2022-11-17T08:48:31.898Z,85.00
2022-11-17T08:51:04.085Z,83.70
2022-11-17T08:53:31.047Z,83.90
2022-11-17T08:55:58.315Z,83.90
2022-11-17T08:58:25.266Z,84.00
2022-11-17T09:00:52.205Z,84.10
2022-11-17T09:03:19.041Z,84.00
2022-11-17T09:05:49.520Z,83.60
2022-11-17T09:08:43.782Z,83.70
2022-11-17T09:11:07.681Z,83.50
2022-11-17T09:13:35.075Z,83.50
2022-11-17T09:16:09.649Z,83.00
2022-11-17T09:18:38.395Z,83.30
2022-11-17T09:21:08.570Z,83.30
2022-11-17T09:23:36.270Z,83.10
2022-11-17T09:26:12.132Z,83.30
2022-11-17T09:28:39.589Z,83.40
2022-11-17T09:31:16.292Z,83.40
2022-11-17T09:33:43.902Z,83.40
2022-11-17T09:36:12.615Z,83.20
2022-11-17T09:38:40.528Z,83.20
2022-11-17T09:41:16.320Z,83.30
2022-11-17T09:44:05.470Z,83.40
2022-11-17T09:46:50.723Z,83.60
2022-11-17T09:49:35.975Z,84.20
2022-11-17T09:52:11.346Z,84.80
2022-11-17T09:54:50.164Z,84.80
2022-11-17T09:57:28.960Z,84.90
2022-11-17T10:00:15.572Z,85.20
2022-11-17T10:02:43.453Z,85.30
2022-11-17T10:05:29.852Z,85.80
2022-11-17T10:08:13.029Z,85.80
2022-11-17T10:10:49.898Z,85.90
2022-11-17T10:13:32.209Z,86.20
2022-11-17T10:16:07.552Z,86.00
2022-11-17T10:18:39.042Z,86.10
2022-11-17T10:21:07.639Z,86.40
2022-11-17T10:23:46.902Z,86.50
2022-11-17T10:26:15.825Z,86.50
2022-11-17T10:28:43.285Z,86.80
2022-11-17T10:31:18.337Z,86.90
2022-11-17T10:33:51.574Z,86.70
2022-11-17T10:36:20.545Z,87.00
2022-11-17T10:38:52.699Z,87.20
2022-11-17T10:41:23.645Z,87.30
2022-11-17T10:44:13.019Z,87.50
2022-11-17T10:47:02.648Z,87.20
2022-11-17T10:49:39.758Z,87.40
2022-11-17T10:52:15.733Z,87.50
2022-11-17T10:54:42.623Z,87.50
2022-11-17T10:57:22.404Z,87.70
2022-11-17T10:59:56.894Z,87.70
2022-11-17T11:02:36.711Z,87.70
2022-11-17T11:05:12.942Z,87.00
2022-11-17T11:07:40.374Z,87.00
2022-11-17T11:10:18.114Z,86.50
2022-11-17T11:12:56.811Z,84.90
2022-11-17T11:15:25.598Z,84.20
2022-11-17T11:17:52.621Z,83.10
2022-11-17T11:20:24.045Z,83.00
2022-11-17T11:23:09.239Z,82.70
2022-11-17T11:25:49.242Z,82.70
2022-11-17T11:28:56.789Z,82.40
2022-11-17T11:31:41.165Z,82.60
2022-11-17T11:34:27.510Z,82.60
2022-11-17T11:37:00.150Z,82.30
2022-11-17T11:40:07.672Z,82.50
2022-11-17T11:42:50.143Z,82.70
2022-11-17T11:45:34.832Z,82.60
2022-11-17T11:48:10.942Z,82.80
2022-11-17T11:50:42.998Z,82.40
2022-11-17T11:53:16.961Z,82.20
2022-11-17T11:55:45.341Z,82.20
2022-11-17T11:58:21.098Z,82.60
2022-11-17T12:00:51.201Z,82.40
2022-11-17T12:03:29.614Z,82.20
2022-11-17T12:06:24.171Z,82.30
2022-11-17T12:08:56.074Z,82.00
2022-11-17T12:11:41.778Z,82.30
2022-11-17T12:14:17.149Z,82.20
2022-11-17T12:16:44.934Z,82.20
2022-11-17T12:19:50.287Z,82.20
2022-11-17T12:22:25.108Z,82.00
2022-11-17T12:24:57.947Z,81.60
2022-11-17T12:27:33.671Z,81.70
2022-11-17T12:30:01.810Z,81.70
2022-11-17T12:32:44.001Z,81.60
2022-11-17T12:35:37.822Z,81.60
2022-11-17T12:38:20.115Z,81.80
2022-11-17T12:40:50.873Z,81.70
2022-11-17T12:43:25.563Z,81.90
2022-11-17T12:45:58.452Z,81.90
2022-11-17T12:48:34.867Z,81.70
2022-11-17T12:51:13.950Z,81.90
2022-11-17T12:54:02.669Z,82.10
2022-11-17T12:56:51.370Z,82.10
2022-11-17T12:59:51.965Z,82.60
2022-11-17T13:02:49.135Z,82.20
2022-11-17T13:05:25.283Z,82.60
2022-11-17T13:08:14.346Z,82.60
2022-11-17T13:10:41.856Z,82.80
2022-11-17T13:13:24.894Z,83.30
2022-11-17T13:15:53.903Z,82.80
2022-11-17T13:18:41.308Z,82.90
2022-11-17T13:21:26.345Z,82.80
2022-11-17T13:23:53.701Z,82.50
2022-11-17T13:26:31.633Z,82.50
2022-11-17T13:29:06.765Z,82.30
2022-11-17T13:31:34.050Z,82.20
2022-11-17T13:34:06.409Z,82.60
2022-11-17T13:36:34.244Z,82.50
2022-11-17T13:39:01.928Z,82.80
2022-11-17T13:41:37.587Z,83.10
2022-11-17T13:44:06.825Z,83.10
2022-11-17T13:46:35.472Z,83.00
2022-11-17T13:49:22.182Z,82.90
2022-11-17T13:51:49.043Z,82.70
2022-11-17T13:54:21.972Z,82.60
2022-11-17T13:56:53.842Z,82.80
2022-11-17T13:59:31.121Z,82.80
2022-11-17T14:02:30.201Z,82.90
2022-11-17T14:05:15.161Z,84.10
2022-11-17T14:07:43.488Z,84.30
2022-11-17T14:10:22.660Z,84.80
2022-11-17T14:13:33.828Z,84.50
2022-11-17T14:16:03.062Z,84.90
2022-11-17T14:18:38.604Z,85.60
2022-11-17T14:21:16.943Z,85.50
2022-11-17T14:23:45.090Z,85.80
2022-11-17T14:26:22.157Z,85.30
2022-11-17T14:28:50.606Z,85.50
2022-11-17T14:31:17.598Z,85.60
2022-11-17T14:33:44.950Z,85.30
2022-11-17T14:36:16.654Z,85.50
2022-11-17T14:38:45.147Z,85.10
2022-11-17T14:41:13.329Z,85.20
2022-11-17T14:43:40.115Z,85.30
2022-11-17T14:46:07.229Z,85.20
2022-11-17T14:48:34.034Z,85.70
2022-11-17T14:51:00.906Z,86.10
2022-11-17T14:53:27.712Z,86.20
2022-11-17T14:55:54.625Z,86.40
2022-11-17T14:58:21.515Z,86.30
2022-11-17T15:00:48.655Z,86.40
2022-11-17T15:03:15.518Z,86.50
2022-11-17T15:05:46.287Z,86.40
2022-11-17T15:08:13.712Z,86.40
2022-11-17T15:10:45.421Z,86.50
2022-11-17T15:13:12.464Z,86.30
2022-11-17T15:15:39.372Z,86.50
2022-11-17T15:18:06.527Z,86.70
2022-11-17T15:20:33.313Z,86.90
2022-11-17T15:23:03.193Z,87.20
2022-11-17T15:25:30.724Z,87.10
2022-11-17T15:27:57.595Z,87.30
2022-11-17T15:30:24.494Z,87.10
2022-11-17T15:32:51.301Z,87.20
2022-11-17T15:35:18.052Z,87.30
2022-11-17T15:37:44.968Z,87.30
2022-11-17T15:40:16.421Z,87.30
2022-11-17T15:42:45.989Z,87.40
2022-11-17T15:45:12.818Z,87.50
2022-11-17T15:47:39.601Z,87.40
2022-11-17T15:50:06.962Z,87.70
2022-11-17T15:53:02.263Z,87.50
2022-11-17T15:55:20.532Z,87.50
2022-11-17T15:57:47.370Z,87.40
2022-11-17T16:00:15.037Z,87.60
2022-11-17T16:02:42.164Z,87.50
2022-11-17T16:05:09.123Z,87.50
2022-11-17T16:07:36.041Z,87.30
2022-11-17T16:10:03.160Z,87.50
2022-11-17T16:12:30.035Z,87.50
2022-11-17T16:14:56.866Z,87.70
2022-11-17T16:17:24.987Z,87.50
2022-11-17T16:19:51.804Z,87.50
2022-11-17T16:22:18.625Z,87.80
2022-11-17T16:24:45.492Z,87.70
2022-11-17T16:27:13.646Z,87.60
2022-11-17T16:29:40.573Z,87.40
2022-11-17T16:32:07.411Z,87.40
2022-11-17T16:34:34.289Z,87.60
2022-11-17T16:37:01.102Z,87.40
2022-11-17T16:39:27.876Z,87.80
2022-11-17T16:41:55.725Z,87.60
2022-11-17T16:44:22.675Z,87.60
2022-11-17T16:46:50.019Z,87.70
2022-11-17T16:49:19.511Z,87.60
2022-11-17T16:51:48.552Z,87.60
2022-11-17T16:54:15.553Z,87.70
2022-11-17T16:56:42.635Z,87.50
2022-11-17T16:59:11.220Z,87.60
2022-11-17T17:01:38.165Z,87.70
2022-11-17T17:04:07.725Z,87.70
2022-11-17T17:06:35.603Z,87.80
2022-11-17T17:09:05.073Z,87.60
2022-11-17T17:11:33.791Z,87.70
2022-11-17T17:14:03.157Z,88.00
2022-11-17T17:16:31.360Z,87.70
2022-11-17T17:19:00.511Z,88.10
2022-11-17T17:21:29.114Z,87.90
2022-11-17T17:23:56.795Z,87.90
2022-11-17T17:26:25.811Z,87.70
2022-11-17T17:28:55.568Z,87.70
2022-11-17T17:31:24.441Z,87.50
2022-11-17T17:33:51.924Z,87.70
2022-11-17T17:36:21.835Z,87.40
2022-11-17T17:38:54.984Z,87.70
2022-11-17T17:41:26.605Z,87.70
2022-11-17T17:44:01.926Z,87.70
2022-11-17T17:46:30.254Z,87.70
2022-11-17T17:48:57.777Z,87.80
2022-11-17T17:51:27.514Z,88.00
2022-11-17T17:53:55.986Z,87.70
2022-11-17T17:56:23.572Z,87.90
2022-11-17T17:58:52.696Z,87.90
2022-11-17T18:01:23.419Z,87.80
2022-11-17T18:03:53.844Z,87.70
2022-11-17T18:06:22.337Z,87.90
2022-11-17T18:08:49.853Z,88.10
2022-11-17T18:11:21.210Z,87.90
2022-11-17T18:13:50.384Z,87.70
2022-11-17T18:16:25.887Z,88.20
2022-11-17T18:18:58.498Z,88.00
2022-11-17T18:21:26.687Z,87.60
2022-11-17T18:23:54.930Z,87.80
2022-11-17T18:26:24.530Z,87.90
2022-11-17T18:28:57.046Z,87.90
2022-11-17T18:31:26.188Z,88.30
2022-11-17T18:33:58.022Z,88.30
2022-11-17T18:36:25.840Z,88.10
2022-11-17T18:38:52.948Z,88.20
2022-11-17T18:41:21.287Z,88.30
2022-11-17T18:43:49.425Z,88.30
2022-11-17T18:46:21.696Z,88.50
2022-11-17T18:48:53.777Z,88.40
2022-11-17T18:51:23.684Z,88.70
2022-11-17T18:53:52.407Z,88.30
2022-11-17T18:56:21.898Z,88.60
2022-11-17T18:58:49.432Z,88.10
2022-11-17T19:01:22.054Z,88.10
2022-11-17T19:03:53.573Z,88.30
2022-11-17T19:06:22.836Z,88.20
2022-11-17T19:08:50.272Z,88.20
2022-11-17T19:11:18.726Z,88.40
2022-11-17T19:13:46.133Z,88.40
2022-11-17T19:16:16.368Z,88.20
2022-11-17T19:18:44.786Z,88.30
2022-11-17T19:21:13.905Z,88.20
2022-11-17T19:23:48.011Z,88.30
2022-11-17T19:26:27.812Z,88.40
2022-11-17T19:28:57.927Z,88.30
2022-11-17T19:31:25.434Z,88.30
2022-11-17T19:33:53.281Z,88.40
2022-11-17T19:36:38.002Z,88.10
2022-11-17T19:39:04.904Z,88.40
2022-11-17T19:41:34.756Z,88.40
2022-11-17T19:44:06.703Z,88.40
2022-11-17T19:46:36.493Z,88.10
2022-11-17T19:49:04.532Z,88.00
2022-11-17T19:51:33.333Z,88.20
2022-11-17T19:54:05.999Z,88.20
2022-11-17T19:56:33.288Z,88.30
2022-11-17T19:59:00.433Z,88.40
2022-11-17T20:01:29.410Z,88.20
2022-11-17T20:04:00.522Z,88.10
2022-11-17T20:06:29.844Z,88.10
2022-11-17T20:09:00.093Z,87.60
2022-11-17T20:11:28.647Z,87.80
2022-11-17T20:13:56.106Z,87.90
2022-11-17T20:16:25.529Z,87.90
2022-11-17T20:18:57.414Z,87.70
2022-11-17T20:21:25.419Z,87.90
2022-11-17T20:23:52.499Z,87.80
2022-11-17T20:26:23.942Z,87.90
2022-11-17T20:28:52.303Z,88.00
2022-11-17T20:31:21.743Z,87.90
2022-11-17T20:33:49.035Z,87.80
2022-11-17T20:36:20.928Z,87.90
2022-11-17T20:39:08.216Z,87.60
2022-11-17T20:41:35.269Z,87.80
2022-11-17T20:44:03.394Z,87.80
2022-11-17T20:46:30.440Z,87.60
2022-11-17T20:48:57.255Z,87.80
2022-11-17T20:51:25.350Z,88.00
2022-11-17T20:53:52.530Z,88.00
2022-11-17T20:56:19.501Z,87.80
2022-11-17T20:58:46.382Z,87.70
2022-11-17T21:01:15.958Z,87.60
2022-11-17T21:03:43.923Z,87.90
2022-11-17T21:06:11.745Z,87.80
2022-11-17T21:08:40.519Z,87.80
2022-11-17T21:11:45.485Z,87.80
2022-11-17T21:14:12.957Z,87.70
2022-11-17T21:16:42.373Z,87.90
2022-11-17T21:19:09.603Z,88.20
2022-11-17T21:21:36.530Z,88.10
2022-11-17T21:24:04.091Z,88.00
2022-11-17T21:26:31.647Z,88.00
2022-11-17T21:29:04.767Z,88.20
2022-11-17T21:31:33.324Z,88.00
2022-11-17T21:34:02.446Z,88.20
2022-11-17T21:36:31.152Z,87.80
2022-11-17T21:38:58.437Z,88.20
2022-11-17T21:41:27.852Z,87.90
2022-11-17T21:43:57.826Z,87.90
2022-11-17T21:46:26.638Z,88.10
2022-11-17T21:48:55.035Z,88.00
2022-11-17T21:51:33.782Z,88.00
2022-11-17T21:54:03.046Z,88.10
2022-11-17T21:56:31.920Z,87.90
2022-11-17T21:59:04.257Z,88.20
2022-11-17T22:01:32.571Z,88.10
2022-11-17T22:03:59.605Z,88.00
2022-11-17T22:06:26.866Z,88.20
2022-11-17T22:08:55.910Z,88.00
2022-11-17T22:11:38.468Z,88.10
2022-11-17T22:14:07.446Z,88.20
2022-11-17T22:16:36.181Z,88.20
2022-11-17T22:19:03.265Z,88.10
2022-11-17T22:21:30.292Z,88.10
2022-11-17T22:23:57.160Z,88.20
2022-11-17T22:26:24.050Z,88.10
2022-11-17T22:28:52.735Z,88.20
2022-11-17T22:31:19.801Z,87.90
2022-11-17T22:33:47.072Z,87.90
2022-11-17T22:36:13.948Z,88.00
2022-11-17T22:38:41.089Z,88.10
2022-11-17T22:41:08.706Z,88.00
2022-11-17T22:43:35.744Z,88.20
2022-11-17T22:46:05.690Z,88.00
2022-11-17T22:48:35.054Z,88.10
2022-11-17T22:51:02.387Z,87.90
2022-11-17T22:53:29.289Z,88.20
2022-11-17T22:56:02.744Z,88.20
2022-11-17T22:58:29.744Z,88.30
2022-11-17T23:00:56.613Z,88.20
2022-11-17T23:03:23.804Z,88.30
2022-11-17T23:05:50.626Z,88.40
2022-11-17T23:08:17.437Z,88.50
2022-11-17T23:10:44.263Z,88.40
2022-11-17T23:13:11.126Z,88.80
2022-11-17T23:15:40.920Z,88.50
2022-11-17T23:18:08.252Z,88.30
2022-11-17T23:20:36.438Z,88.50
2022-11-17T23:23:03.209Z,88.40
2022-11-17T23:25:30.035Z,88.70
2022-11-17T23:27:56.833Z,88.80
2022-11-17T23:30:23.703Z,88.80
2022-11-17T23:32:55.009Z,88.80
2022-11-17T23:35:22.735Z,88.60
2022-11-17T23:37:49.533Z,88.90
2022-11-17T23:40:16.669Z,89.00
2022-11-17T23:42:43.606Z,88.70
2022-11-17T23:45:12.101Z,89.10
2022-11-17T23:47:39.768Z,89.00
2022-11-17T23:50:07.084Z,89.40
2022-11-17T23:52:33.926Z,89.40
2022-11-17T23:55:00.948Z,89.50
2022-11-17T23:57:27.807Z,89.50
2022-11-17T23:59:54.512Z,89.60
